createdAt,value
2019-01-29T14:42:21.937Z,27.75
2019-01-29T14:43:21.910Z,29.65
2019-01-29T14:44:21.895Z,31.19
2019-01-29T14:45:21.996Z,33.54
2019-01-29T14:46:21.896Z,36.49
2019-01-29T14:47:21.856Z,38.84
2019-01-29T14:48:21.848Z,41.47
2019-01-29T14:49:21.834Z,44.61
2019-01-29T14:50:21.836Z,44.70
2019-01-29T14:51:21.843Z,46.75
2019-01-29T14:52:21.823Z,49.41
2019-01-29T14:53:21.795Z,51.93
2019-01-29T14:54:21.811Z,52.83
2019-01-29T14:55:21.776Z,54.63
2019-01-29T14:56:21.787Z,55.80
2019-01-29T14:57:21.745Z,56.34
2019-01-29T14:58:21.737Z,57.29
2019-01-29T14:59:21.737Z,57.81
2019-01-29T15:00:21.735Z,57.84
2019-01-29T15:01:21.727Z,58.15
2019-01-29T15:03:22.789Z,58.36
2019-01-29T15:04:21.668Z,58.48
2019-01-29T15:05:21.659Z,59.08
2019-01-29T15:06:21.688Z,59.19
2019-01-29T15:07:29.895Z,58.36
2019-01-29T15:08:22.619Z,58.36
2019-01-29T15:09:21.610Z,58.28
2019-01-29T15:10:21.618Z,58.38
2019-01-29T15:11:21.603Z,58.77
2019-01-29T15:12:21.625Z,59.19
2019-01-29T15:13:21.585Z,58.28
2019-01-29T15:14:21.553Z,57.94
2019-01-29T15:15:21.541Z,58.10
2019-01-29T15:16:21.543Z,58.83
2019-01-29T15:17:21.556Z,59.14
2019-01-29T15:18:21.525Z,59.45
2019-01-29T15:19:21.505Z,59.47
2019-01-29T15:21:22.630Z,60.30
2019-01-29T15:22:21.667Z,59.09
2019-01-29T15:23:21.663Z,59.89
2019-01-29T15:24:21.588Z,60.22
2019-01-29T15:25:21.573Z,61.26
2019-01-29T15:26:21.552Z,60.85
2019-01-29T15:27:21.450Z,60.53
2019-01-29T15:28:21.439Z,60.05
2019-01-29T15:29:21.400Z,60.36
2019-01-29T15:30:21.377Z,60.77
2019-01-29T15:31:21.370Z,60.08
2019-01-29T15:32:21.385Z,60.60
2019-01-29T15:33:21.370Z,60.91
2019-01-29T15:34:21.364Z,61.43
2019-01-29T15:35:21.326Z,60.28
2019-01-29T15:36:21.311Z,60.91
2019-01-29T15:37:21.336Z,61.63
2019-01-29T15:38:21.295Z,61.63
2019-01-29T15:39:21.282Z,61.94
2019-01-29T15:40:21.274Z,61.84
2019-01-29T15:41:21.256Z,61.40
2019-01-29T15:42:21.274Z,62.15
2019-01-29T15:43:21.268Z,61.94
2019-01-29T15:44:21.223Z,61.43
2019-01-29T15:45:21.227Z,61.94
2019-01-29T15:46:21.196Z,61.01
2019-01-29T15:47:21.191Z,61.35
2019-01-29T15:48:21.200Z,61.76
2019-01-29T15:49:21.167Z,61.97
2019-01-29T15:50:21.165Z,61.63
2019-01-29T15:51:21.139Z,61.97
2019-01-29T15:52:21.175Z,61.66
2019-01-29T15:53:21.153Z,61.87
2019-01-29T15:54:21.117Z,62.28
2019-01-29T15:55:21.105Z,61.84
2019-01-29T15:56:21.103Z,62.18
2019-01-29T15:57:21.075Z,62.18
2019-01-29T15:58:21.157Z,61.66
2019-01-29T15:59:21.046Z,62.38
2019-01-29T16:00:21.050Z,61.94
2019-01-29T16:01:21.039Z,62.26
2019-01-29T16:02:21.024Z,62.26
2019-01-29T16:03:21.133Z,62.46
2019-01-29T16:04:20.995Z,63.19
2019-01-29T16:05:20.979Z,63.40
2019-01-29T16:06:20.985Z,63.29
2019-01-29T16:07:20.972Z,63.92
2019-01-29T16:08:20.972Z,63.71
2019-01-29T16:09:20.962Z,63.60
2019-01-29T16:10:20.937Z,64.25
2019-01-29T16:11:20.914Z,64.87
2019-01-29T16:12:20.905Z,64.87
2019-01-29T16:13:20.918Z,65.19
2019-01-29T16:14:20.881Z,65.60
2019-01-29T16:15:20.912Z,65.63
2019-01-29T16:16:20.856Z,65.94
2019-01-29T16:17:20.843Z,65.50
2019-01-29T16:18:20.837Z,66.25
2019-01-29T16:19:20.855Z,66.47
2019-01-29T16:20:20.828Z,66.88
2019-01-29T16:21:20.823Z,66.36
2019-01-29T16:22:20.796Z,66.99
2019-01-29T16:23:20.777Z,67.50
2019-01-29T16:24:20.790Z,67.40
2019-01-29T16:25:20.766Z,67.40
2019-01-29T16:26:20.753Z,67.92
2019-01-29T16:27:22.726Z,67.71
2019-01-29T16:28:20.721Z,67.92
2019-01-29T16:29:21.014Z,67.92
2019-01-29T16:30:20.776Z,67.92
2019-01-29T16:31:20.696Z,68.23
2019-01-29T16:32:20.691Z,68.44
2019-01-29T16:34:21.806Z,68.05
2019-01-29T16:35:20.638Z,68.37
2019-01-29T16:36:20.632Z,68.26
2019-01-29T16:37:20.634Z,68.47
2019-01-29T16:38:20.611Z,68.78
2019-01-29T16:39:20.603Z,68.68
2019-01-29T16:40:20.620Z,68.71
2019-01-29T16:41:20.582Z,68.88
2019-01-29T16:42:20.569Z,68.57
2019-01-29T16:43:20.562Z,68.68
2019-01-29T16:44:20.549Z,68.78
2019-01-29T16:45:21.022Z,68.57
2019-01-29T16:46:20.534Z,68.57
2019-01-29T16:47:20.533Z,68.57
2019-01-29T16:48:20.504Z,68.68
2019-01-29T16:49:20.487Z,68.71
2019-01-29T16:50:20.504Z,69.02
2019-01-29T16:51:20.482Z,69.02
2019-01-29T16:52:20.459Z,69.02
2019-01-29T16:53:20.448Z,68.71
2019-01-29T16:54:20.453Z,68.95
2019-01-29T16:55:20.456Z,69.26
2019-01-29T16:56:20.411Z,69.15
2019-01-29T16:57:20.400Z,69.37
2019-01-29T16:58:20.390Z,69.37
2019-01-29T16:59:20.402Z,68.74
2019-01-29T17:00:20.403Z,68.74
2019-01-29T17:01:20.357Z,68.74
2019-01-29T17:02:20.386Z,68.53
2019-01-29T17:03:20.339Z,68.84
2019-01-29T17:04:20.329Z,68.77
2019-01-29T17:06:21.430Z,68.88
2019-01-29T17:07:20.335Z,68.15
2019-01-29T17:08:20.284Z,68.15
2019-01-29T17:09:20.273Z,68.04
2019-01-29T17:10:20.269Z,68.35
2019-01-29T17:11:20.279Z,68.15
2019-01-29T17:12:20.244Z,68.35
2019-01-29T17:13:20.261Z,67.94
2019-01-29T17:14:20.218Z,68.15
2019-01-29T17:15:20.204Z,68.15
2019-01-29T17:16:20.311Z,68.15
2019-01-29T17:17:20.196Z,68.15
2019-01-29T17:18:20.182Z,67.97
2019-01-29T17:19:20.171Z,68.15
2019-01-29T17:20:20.154Z,68.18
2019-01-29T17:21:20.188Z,67.97
2019-01-29T17:22:20.136Z,68.35
2019-01-29T17:23:20.133Z,68.38
2019-01-29T17:24:20.111Z,68.28
2019-01-29T17:25:20.102Z,68.18
2019-01-29T17:26:20.131Z,68.38
2019-01-29T17:27:20.081Z,68.49
2019-01-29T17:28:20.068Z,68.18
2019-01-29T17:29:20.053Z,68.70
2019-01-29T17:30:20.044Z,68.70
2019-01-29T17:31:20.030Z,68.70
2019-01-29T17:32:20.059Z,68.70
2019-01-29T17:33:20.042Z,68.91
2019-01-29T17:34:19.999Z,69.22
2019-01-29T17:35:19.983Z,69.22
2019-01-29T17:36:19.979Z,68.70
2019-01-29T17:37:20.021Z,69.53
2019-01-29T17:38:19.952Z,69.32
2019-01-29T17:39:19.952Z,69.32
2019-01-29T17:40:19.939Z,68.94
2019-01-29T17:41:19.921Z,69.35
2019-01-29T17:42:19.955Z,69.35
2019-01-29T17:43:19.905Z,69.35
2019-01-29T17:44:19.898Z,69.35
2019-01-29T17:45:19.884Z,69.04
2019-01-29T17:46:19.865Z,69.04
2019-01-29T17:47:19.915Z,69.35
2019-01-29T17:48:19.841Z,69.25
2019-01-29T17:50:19.825Z,69.91
2019-01-29T17:51:19.809Z,69.87
2019-01-29T17:52:19.884Z,70.01
2019-01-29T17:53:19.836Z,70.12
2019-01-29T17:54:19.778Z,70.84
2019-01-29T17:55:19.764Z,70.12
2019-01-29T17:56:19.754Z,70.01
2019-01-29T17:57:19.772Z,70.12
2019-01-29T17:58:19.775Z,70.12
2019-01-29T17:59:19.720Z,70.74
2019-01-29T18:00:19.742Z,70.53
2019-01-29T18:01:19.717Z,70.95
2019-01-29T18:02:19.696Z,71.26
2019-01-29T18:03:19.733Z,71.26
2019-01-29T18:04:19.669Z,70.53
2019-01-29T18:05:19.660Z,70.74
2019-01-29T18:06:19.645Z,70.84
2019-01-29T18:07:19.634Z,71.37
2019-01-29T18:08:19.675Z,71.16
2019-01-29T18:09:19.610Z,71.58
2019-01-29T18:10:19.600Z,72.09
2019-01-29T18:11:19.597Z,72.44
2019-01-29T18:12:19.574Z,72.20
2019-01-29T18:13:19.580Z,72.09
2019-01-29T18:14:19.648Z,71.71
2019-01-29T18:15:19.550Z,71.92
2019-01-29T18:16:19.554Z,72.55
2019-01-29T18:17:19.521Z,72.65
2019-01-29T18:18:19.520Z,72.24
2019-01-29T18:19:19.538Z,72.93
2019-01-29T18:20:19.495Z,72.65
2019-01-29T18:21:19.480Z,72.44
2019-01-29T18:22:19.471Z,72.65
2019-01-29T18:23:19.461Z,72.75
2019-01-29T18:24:19.544Z,72.86
2019-01-29T18:25:19.436Z,73.07
2019-01-29T18:26:19.433Z,72.86
2019-01-29T18:27:19.422Z,72.96
2019-01-29T18:28:19.451Z,72.75
2019-01-29T18:29:19.409Z,73.38
2019-01-29T18:30:19.396Z,73.27
2019-01-29T18:31:19.366Z,73.07
2019-01-29T18:32:19.357Z,73.21
2019-01-29T18:33:19.347Z,73.49
2019-01-29T18:34:19.413Z,73.59
2019-01-29T18:35:19.327Z,73.17
2019-01-29T18:36:19.329Z,74.63
2019-01-29T18:37:19.309Z,73.62
2019-01-29T18:38:19.304Z,73.93
2019-01-29T18:39:19.377Z,73.41
2019-01-29T18:40:19.283Z,74.56
2019-01-29T18:41:19.257Z,74.42
2019-01-29T18:42:19.243Z,74.25
2019-01-29T18:43:19.250Z,74.25
2019-01-29T18:44:19.317Z,74.46
2019-01-29T18:45:19.209Z,74.46
2019-01-29T18:46:19.208Z,74.46
2019-01-29T18:47:19.200Z,74.46
2019-01-29T18:48:19.255Z,74.46
2019-01-29T18:49:19.261Z,74.35
2019-01-29T18:50:19.153Z,74.25
2019-01-29T18:51:20.519Z,74.35
2019-01-29T18:52:19.146Z,74.25
2019-01-29T18:53:19.133Z,74.35
2019-01-29T18:54:19.184Z,74.15
2019-01-29T18:55:19.114Z,74.35
2019-01-29T18:56:19.105Z,74.35
2019-01-29T18:57:19.091Z,74.46
2019-01-29T18:58:19.074Z,74.56
2019-01-29T18:59:19.060Z,74.25
2019-01-29T19:00:19.087Z,74.35
2019-01-29T19:01:19.046Z,74.56
2019-01-29T19:02:19.035Z,74.35
2019-01-29T19:03:19.015Z,74.66
2019-01-29T19:04:19.023Z,74.56
2019-01-29T19:05:19.069Z,74.46
2019-01-29T19:06:18.984Z,74.56
2019-01-29T19:07:18.972Z,74.56
2019-01-29T19:08:18.964Z,74.46
2019-01-29T19:09:18.948Z,74.15
2019-01-29T19:10:19.040Z,74.46
2019-01-29T19:11:18.938Z,74.77
2019-01-29T19:12:18.917Z,74.35
2019-01-29T19:13:18.915Z,74.66
2019-01-29T19:14:18.891Z,74.25
2019-01-29T19:15:19.001Z,74.25
2019-01-29T19:16:18.864Z,74.25
2019-01-29T19:17:18.854Z,74.56
2019-01-29T19:18:18.856Z,74.25
2019-01-29T19:19:18.837Z,74.66
2019-01-29T19:20:18.911Z,74.77
2019-01-29T19:21:18.815Z,74.80
2019-01-29T19:22:18.808Z,74.70
2019-01-29T19:23:18.792Z,74.80
2019-01-29T19:24:18.794Z,74.80
2019-01-29T19:25:18.894Z,74.91
2019-01-29T19:26:18.970Z,75.32
2019-01-29T19:27:18.756Z,75.43
2019-01-29T19:28:22.098Z,75.01
2019-01-29T19:29:18.720Z,75.22
2019-01-29T19:30:18.814Z,75.12
2019-01-29T19:31:18.809Z,75.63
2019-01-29T19:32:18.690Z,75.22
2019-01-29T19:33:18.679Z,75.43
2019-01-29T19:34:18.668Z,75.74
2019-01-29T19:35:18.664Z,75.53
2019-01-29T19:36:18.829Z,75.32
2019-01-29T19:37:18.645Z,75.32
2019-01-29T19:38:18.633Z,75.22
2019-01-29T19:39:18.611Z,75.43
2019-01-29T19:40:18.706Z,75.12
2019-01-29T19:41:18.699Z,74.80
2019-01-29T19:42:27.349Z,74.60
2019-01-29T19:43:19.574Z,75.26
2019-01-29T19:44:18.555Z,75.22
2019-01-29T19:45:18.560Z,74.80
2019-01-29T19:46:18.667Z,74.84
2019-01-29T19:47:18.547Z,75.05
2019-01-29T19:48:18.526Z,75.05
2019-01-29T19:49:18.510Z,75.67
2019-01-29T19:50:18.497Z,75.78
2019-01-29T19:51:18.994Z,75.46
2019-01-29T19:52:18.465Z,75.32
2019-01-29T19:53:18.461Z,75.01
2019-01-29T19:54:18.446Z,75.36
2019-01-29T19:55:18.433Z,75.15
2019-01-29T19:56:18.439Z,75.26
2019-01-29T19:57:18.524Z,75.36
2019-01-29T19:58:18.399Z,74.84
2019-01-29T19:59:18.403Z,75.32
2019-01-29T20:00:18.383Z,75.22
2019-01-29T20:01:18.369Z,75.22
2019-01-29T20:02:18.469Z,74.70
2019-01-29T20:03:18.354Z,74.49
2019-01-29T20:04:18.336Z,74.60
2019-01-29T20:05:18.337Z,74.60
2019-01-29T20:06:18.319Z,74.28
2019-01-29T20:07:18.345Z,74.38
2019-01-29T20:08:18.296Z,74.60
2019-01-29T20:09:18.305Z,74.70
2019-01-29T20:10:18.279Z,74.49
2019-01-29T20:11:18.263Z,74.49
2019-01-29T20:12:18.285Z,74.70
2019-01-29T20:13:18.245Z,74.49
2019-01-29T20:14:18.222Z,74.28
2019-01-29T20:15:18.227Z,74.49
2019-01-29T20:16:18.200Z,74.60
2019-01-29T20:17:18.289Z,74.70
2019-01-29T20:18:18.185Z,74.60
2019-01-29T20:19:18.178Z,74.80
2019-01-29T20:20:18.158Z,74.91
2019-01-29T20:21:18.151Z,74.70
2019-01-29T20:22:18.259Z,74.70
2019-01-29T20:23:18.223Z,74.49
2019-01-29T20:24:18.127Z,75.12
2019-01-29T20:25:18.114Z,75.12
2019-01-29T20:26:18.100Z,75.32
2019-01-29T20:27:18.076Z,75.12
2019-01-29T20:28:18.170Z,75.22
2019-01-29T20:29:18.065Z,74.70
2019-01-29T20:30:18.053Z,75.12
2019-01-29T20:31:18.043Z,74.80
2019-01-29T20:32:18.023Z,74.80
2019-01-29T20:33:18.966Z,74.80
2019-01-29T20:35:19.112Z,74.56
2019-01-29T20:36:17.991Z,74.49
2019-01-29T20:37:17.968Z,74.60
2019-01-29T20:38:18.465Z,74.80
2019-01-29T20:39:17.945Z,74.49
2019-01-29T20:40:17.941Z,74.38
2019-01-29T20:41:17.932Z,74.38
2019-01-29T20:42:17.925Z,74.91
2019-01-29T20:43:17.944Z,75.01
2019-01-29T20:44:17.888Z,74.80
2019-01-29T20:45:17.906Z,74.91
2019-01-29T20:46:17.883Z,74.49
2019-01-29T20:47:17.869Z,75.32
2019-01-29T20:48:17.902Z,75.85
2019-01-29T20:49:18.949Z,75.63
2019-01-29T20:50:17.827Z,75.74
2019-01-29T20:51:17.817Z,75.67
2019-01-29T20:52:17.815Z,75.53
2019-01-29T20:53:17.796Z,75.46
2019-01-29T20:54:17.833Z,75.32
2019-01-29T20:55:17.775Z,75.36
2019-01-29T20:56:17.774Z,75.74
2019-01-29T20:57:17.743Z,75.46
2019-01-29T20:58:17.748Z,75.85
2019-01-29T20:59:17.765Z,75.88
2019-01-29T21:00:17.715Z,75.78
2019-01-29T21:01:17.708Z,75.85
2019-01-29T21:02:17.707Z,75.78
2019-01-29T21:03:17.678Z,75.78
2019-01-29T21:04:17.693Z,75.63
2019-01-29T21:05:17.659Z,75.98
2019-01-29T21:06:17.651Z,75.78
2019-01-29T21:07:17.634Z,75.12
2019-01-29T21:08:17.625Z,75.36
2019-01-29T21:09:17.635Z,76.61
2019-01-29T21:10:17.626Z,76.61
2019-01-29T21:11:17.596Z,76.82
2019-01-29T21:12:19.960Z,75.95
2019-01-29T21:13:17.577Z,75.98
2019-01-29T21:14:17.639Z,75.95
2019-01-29T21:15:17.568Z,75.63
2019-01-29T21:16:17.537Z,75.43
2019-01-29T21:17:17.523Z,75.85
2019-01-29T21:18:17.526Z,75.88
2019-01-29T21:19:17.534Z,75.74
2019-01-29T21:20:17.504Z,76.30
2019-01-29T21:21:17.482Z,75.26
2019-01-29T21:22:17.465Z,75.05
2019-01-29T21:23:17.466Z,75.36
2019-01-29T21:24:17.456Z,75.53
2019-01-29T21:25:17.474Z,75.15
2019-01-29T21:26:17.422Z,75.67
2019-01-29T21:27:17.411Z,74.84
2019-01-29T21:28:17.418Z,74.63
2019-01-29T21:29:17.395Z,75.26
2019-01-29T21:30:17.408Z,75.36
2019-01-29T21:31:17.376Z,75.98
2019-01-29T21:32:17.365Z,75.67
2019-01-29T21:33:17.351Z,75.26
2019-01-29T21:34:17.347Z,75.32
2019-01-29T21:35:17.395Z,75.05
2019-01-29T21:36:17.312Z,74.84
2019-01-29T21:37:17.305Z,74.94
2019-01-29T21:38:17.293Z,74.73
2019-01-29T21:39:17.283Z,74.63
2019-01-29T21:40:17.274Z,75.36
2019-01-29T21:41:17.303Z,75.98
2019-01-29T21:42:17.253Z,75.36
2019-01-29T21:43:17.249Z,75.32
2019-01-29T21:44:17.233Z,75.26
2019-01-29T21:45:17.227Z,74.94
2019-01-29T21:46:17.240Z,75.26
2019-01-29T21:47:17.193Z,74.21
2019-01-29T21:48:17.197Z,74.73
2019-01-29T21:49:17.177Z,74.49
2019-01-29T21:50:17.160Z,75.78
2019-01-29T21:51:17.195Z,74.63
2019-01-29T21:52:17.134Z,74.52
2019-01-29T21:53:17.124Z,74.42
2019-01-29T21:54:17.117Z,73.79
2019-01-29T21:55:17.116Z,74.52
2019-01-29T21:56:17.133Z,74.42
2019-01-29T21:57:17.112Z,74.52
2019-01-29T21:58:17.089Z,74.42
2019-01-29T21:59:17.061Z,74.73
2019-01-29T22:00:17.055Z,74.42
2019-01-29T22:01:17.069Z,74.35
2019-01-29T22:02:17.030Z,73.69
2019-01-29T22:03:17.064Z,74.63
2019-01-29T22:04:17.009Z,74.42
2019-01-29T22:05:17.012Z,74.42
2019-01-29T22:06:17.005Z,74.73
2019-01-29T22:07:17.007Z,73.90
2019-01-29T22:08:16.960Z,74.42
2019-01-29T22:09:16.957Z,73.30
2019-01-29T22:10:16.944Z,73.20
2019-01-29T22:11:16.934Z,73.83
2019-01-29T22:12:16.952Z,73.83
2019-01-29T22:13:16.907Z,73.72
2019-01-29T22:14:16.893Z,73.20
2019-01-29T22:15:16.917Z,72.99
2019-01-29T22:16:16.894Z,73.52
2019-01-29T22:17:16.893Z,73.41
2019-01-29T22:18:16.859Z,73.72
2019-01-29T22:19:16.839Z,73.20
2019-01-29T22:20:16.845Z,73.10
2019-01-29T22:21:16.856Z,73.62
2019-01-29T22:22:16.840Z,72.68
2019-01-29T22:23:16.801Z,72.68
2019-01-29T22:24:16.796Z,72.68
2019-01-29T22:25:16.799Z,72.68
2019-01-29T22:26:16.783Z,72.89
2019-01-29T22:27:16.776Z,72.36
2019-01-29T22:28:16.794Z,72.05
2019-01-29T22:29:23.138Z,72.16
2019-01-29T22:30:17.724Z,72.58
2019-01-29T22:31:16.711Z,71.84
2019-01-29T22:32:16.736Z,72.78
2019-01-29T22:33:16.709Z,72.78
2019-01-29T22:34:16.678Z,72.68
2019-01-29T22:35:16.663Z,72.89
2019-01-29T22:36:16.657Z,72.16
2019-01-29T22:37:16.651Z,71.84
2019-01-29T22:38:16.658Z,72.47
2019-01-29T22:39:16.655Z,71.74
2019-01-29T22:40:16.629Z,71.84
2019-01-29T22:41:16.604Z,71.95
2019-01-29T22:42:16.584Z,72.05
2019-01-29T22:43:16.752Z,72.36
2019-01-29T22:44:16.562Z,72.36
2019-01-29T22:45:16.567Z,72.36
2019-01-29T22:46:16.542Z,72.05
2019-01-29T22:47:16.543Z,72.36
2019-01-29T22:48:16.553Z,71.95
2019-01-29T22:49:16.512Z,72.26
2019-01-29T22:50:16.516Z,72.16
2019-01-29T22:51:16.501Z,72.68
2019-01-29T22:52:16.480Z,72.36
2019-01-29T22:53:16.515Z,71.95
2019-01-29T22:54:16.468Z,72.16
2019-01-29T22:55:16.482Z,72.05
2019-01-29T22:56:16.431Z,72.58
2019-01-29T22:57:16.429Z,72.26
2019-01-29T22:58:16.444Z,72.36
2019-01-29T22:59:18.329Z,72.36
2019-01-29T23:00:16.390Z,72.26
2019-01-29T23:01:16.373Z,71.95
2019-01-29T23:02:16.373Z,72.58
2019-01-29T23:03:16.385Z,72.16
2019-01-29T23:04:16.341Z,71.53
2019-01-29T23:05:16.336Z,72.50
2019-01-29T23:06:16.348Z,72.50
2019-01-29T23:07:16.310Z,72.19
2019-01-29T23:08:16.303Z,72.36
2019-01-29T23:09:16.329Z,72.58
2019-01-29T23:10:16.279Z,72.30
2019-01-29T23:11:16.276Z,71.74
2019-01-29T23:12:16.254Z,72.26
2019-01-29T23:13:16.272Z,71.32
2019-01-29T23:14:16.237Z,72.40
2019-01-29T23:15:16.228Z,72.40
2019-01-29T23:16:16.211Z,72.19
2019-01-29T23:17:16.198Z,71.56
2019-01-29T23:18:16.200Z,72.50
2019-01-29T23:19:16.208Z,72.50
2019-01-29T23:20:16.179Z,72.08
2019-01-29T23:21:16.153Z,71.98
2019-01-29T23:22:16.145Z,72.19
2019-01-29T23:23:16.140Z,71.88
2019-01-29T23:24:16.144Z,72.61
2019-01-29T23:25:16.131Z,72.40
2019-01-29T23:26:16.100Z,72.40
2019-01-29T23:27:16.092Z,72.61
2019-01-29T23:28:16.077Z,72.50
2019-01-29T23:29:17.209Z,72.40
2019-01-29T23:30:16.084Z,71.98
2019-01-29T23:31:16.046Z,72.19
2019-01-29T23:32:16.043Z,72.40
2019-01-29T23:33:16.027Z,71.98
2019-01-29T23:34:16.052Z,72.08
2019-01-29T23:35:16.002Z,72.08
2019-01-29T23:36:15.991Z,72.71
2019-01-29T23:37:15.985Z,72.30
2019-01-29T23:38:15.975Z,72.50
2019-01-29T23:39:15.974Z,72.30
2019-01-29T23:40:15.975Z,72.61
2019-01-29T23:41:15.941Z,71.88
2019-01-29T23:42:15.929Z,71.88
2019-01-29T23:43:15.916Z,71.88
2019-01-29T23:44:15.994Z,72.92
2019-01-29T23:45:15.976Z,72.71
2019-01-29T23:46:15.880Z,72.08
2019-01-29T23:47:15.876Z,74.59
2019-01-29T23:48:15.867Z,76.16
2019-01-29T23:49:15.844Z,72.99
2019-01-29T23:50:15.859Z,75.71
2019-01-29T23:51:15.827Z,75.08
2019-01-29T23:52:15.817Z,72.99
2019-01-29T23:53:15.813Z,72.71
2019-01-29T23:54:15.794Z,72.36
2019-01-29T23:55:15.818Z,72.26
2019-01-29T23:56:15.770Z,72.05
2019-01-29T23:57:15.763Z,72.99
2019-01-29T23:58:15.765Z,73.10
2019-01-29T23:59:15.735Z,72.92
